Flight Number: AVA6197 Duration: 14:00
Departure: Melbourne Intl (YMML) at 22:00 Distance: 6287 Nm
Arrival: Dubai Intl Airport (OMDB) at 12:00 Equipment: B747

Weather Information
Melbourne Airport, Australia (YMML) 37-40S 144-50E 141M Oct 22, 2020 - 08:00 AM EDT / 2020.10.22 1200 UTC
Wind: from the WNW (290 degrees) at 7 MPH (6 KT):0
Visibility: greater than 7 mile(s):0 Temperature: 51 F (11 C) Dew Point: 50 F (10 C) Relative Humidity: 93% Pressure (altimeter): 29.91 in. Hg (1013 hPa)
ob: YMML 221200Z 29006KT CAVOK 11/10 Q1013 cycle: 12
Sunrise: 19:28 Sunset: 08:42 (UTC)

Dubai International Airport, United Arab Emirates (OMDB) 25-15N 055-20E 5M Oct 22, 2020 - 08:00 AM EDT / 2020.10.22 1200 UTC
Wind: from the N (350 degrees) at 12 MPH (10 KT):0
Visibility: greater than 7 mile(s):0 Temperature: 91 F (33 C) Dew Point: 64 F (18 C) Relative Humidity: 41% Pressure (altimeter): 29.80 in. Hg (1009 hPa)
ob: OMDB 221200Z 35010KT CAVOK 33/18 Q1009 NOSIG cycle: 12
Sunrise: 02:23 Sunset: 13:42 (UTC)

TAF:2020/10/22 12:03 TAF OMDB 221100Z 2212/2318 32012KT CAVOK BECMG 2216/2218 14005KT PROB30 2300/2305 3000 BR BECMG 2308/2310 34012KT BECMG 2316/2318 09005KT

This route has never been flown.

Route map